Time;durP1;ratioP1;P1;durP2;ratioP2;P2;SDS_P1;SDS_P2;PMS_P1;PMS_P2;Temp;Humidity;BMP_temperature;BMP_pressure;BME280_temperature;BME280_humidity;BME280_pressure;Samples;Min_cycle;Max_cycle;Signal;HPM_P1;HPM_P2
2022/06/07 00:02:25;;;;;;;3.22;0.98;;;18.30;56.20;;;;;;5048379;28;20024;-73
2022/06/07 00:04:56;;;;;;;4.88;1.30;;;18.20;56.10;;;;;;5066163;28;20032;-73
2022/06/07 00:07:24;;;;;;;2.35;1.20;;;18.20;56.80;;;;;;5048977;28;20567;-73
2022/06/07 00:09:50;;;;;;;3.78;1.38;;;18.10;56.10;;;;;;5065699;28;20021;-72
2022/06/07 00:12:17;;;;;;;1.65;1.00;;;18.10;56.20;;;;;;5064349;28;20044;-72
2022/06/07 00:14:43;;;;;;;3.47;1.00;;;18.10;56.20;;;;;;5077296;28;20033;-73
2022/06/07 00:17:11;;;;;;;2.97;1.02;;;18.00;56.10;;;;;;5045077;28;20025;-72
2022/06/07 00:19:40;;;;;;;3.33;1.40;;;17.90;56.00;;;;;;5047363;28;20028;-73
2022/06/07 00:22:07;;;;;;;1.50;0.98;;;17.90;56.20;;;;;;5064234;28;20028;-72
2022/06/07 00:24:33;;;;;;;1.95;1.23;;;17.90;56.30;;;;;;5065380;28;20032;-72
2022/06/07 00:27:01;;;;;;;1.33;0.95;;;17.80;56.20;;;;;;5066639;28;20028;-73
2022/06/07 00:29:28;;;;;;;2.53;0.88;;;17.70;56.10;;;;;;5066082;28;20434;-72
2022/06/07 00:31:55;;;;;;;4.45;1.02;;;17.70;56.10;;;;;;5044286;28;20098;-74
2022/06/07 00:34:22;;;;;;;2.88;1.08;;;17.60;56.30;;;;;;5047881;28;20126;-73
2022/06/07 00:36:47;;;;;;;4.55;1.33;;;17.60;56.20;;;;;;5046466;28;20029;-75
2022/06/07 00:39:14;;;;;;;0.70;0.70;;;17.50;56.10;;;;;;5055075;28;20371;-74
2022/06/07 00:41:40;;;;;;;1.50;0.95;;;17.50;56.20;;;;;;5054081;28;20366;-74
2022/06/07 00:44:21;;;;;;;4.22;1.10;;;17.40;56.10;;;;;;5074703;28;20036;-74
2022/06/07 00:47:10;;;;;;;1.33;0.80;;;17.40;56.30;;;;;;5035190;28;20064;-72
2022/06/07 00:49:45;;;;;;;1.60;1.10;;;17.30;56.20;;;;;;5070668;28;20092;-73
2022/06/07 00:52:13;;;;;;;0.95;0.85;;;17.20;56.10;;;;;;5064324;28;20059;-74
2022/06/07 00:54:39;;;;;;;2.13;1.05;;;17.20;56.10;;;;;;5080639;28;20017;-73
2022/06/07 00:57:21;;;;;;;1.17;0.90;;;17.10;56.00;;;;;;5066924;28;20036;-72
2022/06/07 00:59:47;;;;;;;2.30;0.90;;;17.10;56.10;;;;;;5067595;28;20111;-72
2022/06/07 01:02:13;;;;;;;0.80;0.73;;;17.10;56.20;;;;;;5039768;28;20028;-72
2022/06/07 01:04:41;;;;;;;2.53;0.90;;;17.00;56.10;;;;;;5044341;28;20063;-73
2022/06/07 01:12:44;;;;;;;1.55;0.80;;;16.90;56.10;;;;;;5047652;28;20048;-74
2022/06/07 01:15:14;;;;;;;2.10;1.10;;;16.80;56.00;;;;;;5047413;28;20554;-74
2022/06/07 01:17:42;;;;;;;1.05;0.70;;;16.80;56.10;;;;;;5030890;28;20036;-73
2022/06/07 01:20:10;;;;;;;4.68;0.90;;;16.80;56.20;;;;;;5045949;28;20041;-70
2022/06/07 01:22:37;;;;;;;2.25;0.88;;;16.70;56.10;;;;;;5049284;28;20476;-73
2022/06/07 01:25:05;;;;;;;1.35;0.90;;;16.70;56.10;;;;;;5030689;28;20115;-73
2022/06/07 01:27:31;;;;;;;2.05;1.00;;;16.60;56.00;;;;;;5049067;28;20075;-72
2022/06/07 01:29:57;;;;;;;1.23;1.10;;;16.60;56.10;;;;;;5050366;28;20033;-72
2022/06/07 01:32:24;;;;;;;1.65;1.13;;;16.60;56.10;;;;;;5049754;28;20040;-72
2022/06/07 01:34:49;;;;;;;2.42;0.85;;;16.60;56.20;;;;;;5047815;28;20162;-74
2022/06/07 01:37:18;;;;;;;2.17;1.35;;;16.50;56.20;;;;;;5039794;28;20407;-73
2022/06/07 01:42:30;;;;;;;0.95;0.85;;;16.50;56.30;;;;;;5040137;28;20079;-73
2022/06/07 01:44:56;;;;;;;3.90;1.67;;;16.40;56.10;;;;;;5057350;28;20072;-73
2022/06/07 01:47:26;;;;;;;2.38;1.00;;;16.40;56.20;;;;;;5042597;28;20412;-73
2022/06/07 01:49:55;;;;;;;0.60;0.60;;;16.30;56.10;;;;;;5024449;28;20025;-74
2022/06/07 01:52:24;;;;;;;4.07;1.00;;;16.30;56.20;;;;;;5047879;28;20040;-73
2022/06/07 01:54:54;;;;;;;1.23;0.80;;;16.20;56.10;;;;;;5020797;28;20547;-73
2022/06/07 01:57:21;;;;;;;4.22;1.35;;;16.20;56.20;;;;;;5050615;28;20036;-73
2022/06/07 01:59:50;;;;;;;0.80;0.73;;;16.10;56.10;;;;;;5040659;28;20053;-73
2022/06/07 02:02:24;;;;;;;1.88;0.82;;;16.10;56.20;;;;;;5042403;28;20021;-73
2022/06/07 02:04:51;;;;;;;0.75;0.73;;;16.10;56.30;;;;;;5026418;28;20725;-73
2022/06/07 02:07:21;;;;;;;1.75;0.77;;;16.00;56.20;;;;;;5042481;28;20032;-73
2022/06/07 02:09:53;;;;;;;1.67;0.73;;;16.00;56.30;;;;;;5050384;28;20028;-73
2022/06/07 02:12:20;;;;;;;1.23;0.50;;;15.90;56.10;;;;;;5048972;28;20068;-73
2022/06/07 02:14:46;;;;;;;1.27;0.90;;;15.90;56.20;;;;;;5033095;28;20124;-73
2022/06/07 02:17:13;;;;;;;2.30;0.68;;;15.90;56.30;;;;;;5058375;28;20036;-73
2022/06/07 02:19:52;;;;;;;0.95;0.70;;;15.90;56.30;;;;;;5049732;28;21090;-74
2022/06/07 02:22:19;;;;;;;2.00;0.65;;;15.80;56.20;;;;;;5028960;28;20025;-73
2022/06/07 02:24:45;;;;;;;2.00;0.95;;;15.80;56.30;;;;;;5048783;28;20082;-74
2022/06/07 02:27:14;;;;;;;0.95;0.80;;;15.80;56.30;;;;;;5066050;28;20143;-74
2022/06/07 02:29:47;;;;;;;1.38;0.63;;;15.70;56.20;;;;;;5030872;28;20040;-74
2022/06/07 02:32:33;;;;;;;1.90;0.95;;;15.70;56.30;;;;;;5051171;28;20045;-73
2022/06/07 02:35:01;;;;;;;1.75;0.90;;;15.70;56.40;;;;;;5033811;28;20036;-73
2022/06/07 02:37:28;;;;;;;0.80;0.55;;;15.60;56.10;;;;;;5071823;28;20024;-73
2022/06/07 02:39:56;;;;;;;1.77;0.80;;;15.60;56.20;;;;;;5046927;28;20053;-73
2022/06/07 02:42:26;;;;;;;2.25;0.90;;;15.60;56.30;;;;;;5054496;28;20033;-73
2022/06/07 02:44:52;;;;;;;1.13;0.85;;;15.60;56.40;;;;;;5046126;28;20033;-74
2022/06/07 02:47:18;;;;;;;1.15;0.70;;;15.60;56.40;;;;;;5055233;28;20417;-73
2022/06/07 02:49:52;;;;;;;3.38;0.73;;;15.50;56.30;;;;;;5030666;28;20406;-73
2022/06/07 02:52:19;;;;;;;2.45;0.80;;;15.50;56.40;;;;;;5032037;28;20045;-73
2022/06/07 02:54:52;;;;;;;2.20;0.93;;;15.40;56.30;;;;;;5024044;28;20540;-73
2022/06/07 02:57:18;;;;;;;1.20;0.63;;;15.40;56.40;;;;;;5030404;28;20037;-73
2022/06/07 02:59:45;;;;;;;1.40;0.90;;;15.40;56.40;;;;;;5030147;28;20116;-74
2022/06/07 03:02:12;;;;;;;1.38;0.95;;;15.30;56.30;;;;;;5038474;28;20231;-73
2022/06/07 03:04:39;;;;;;;3.05;0.90;;;15.30;56.40;;;;;;5029796;28;20086;-74
2022/06/07 03:07:07;;;;;;;2.10;0.82;;;15.30;56.50;;;;;;5029171;28;20029;-73
2022/06/07 03:09:33;;;;;;;1.33;0.60;;;15.20;56.40;;;;;;5013277;28;21594;-73
2022/06/07 03:12:02;;;;;;;1.75;0.82;;;15.20;56.40;;;;;;5029833;28;20041;-74
2022/06/07 03:14:30;;;;;;;1.35;1.05;;;15.20;56.50;;;;;;5028588;28;20033;-73
2022/06/07 03:16:59;;;;;;;2.28;1.08;;;15.10;56.40;;;;;;5025943;28;20033;-74
2022/06/07 03:19:29;;;;;;;2.05;0.70;;;15.10;56.50;;;;;;5013755;28;20029;-74
2022/06/07 03:21:56;;;;;;;1.08;0.60;;;15.10;56.60;;;;;;5013348;28;20036;-73
2022/06/07 03:24:22;;;;;;;1.52;0.75;;;15.00;56.40;;;;;;5026358;28;20029;-73
2022/06/07 03:26:51;;;;;;;1.10;1.00;;;15.00;56.50;;;;;;5046037;28;20051;-73
2022/06/07 03:29:17;;;;;;;1.52;0.82;;;15.00;56.60;;;;;;5028325;28;20033;-73
2022/06/07 03:31:44;;;;;;;1.30;1.20;;;15.00;56.60;;;;;;5021790;28;20042;-73
2022/06/07 03:34:13;;;;;;;2.92;1.52;;;15.00;56.70;;;;;;5028625;28;20029;-73
2022/06/07 03:36:41;;;;;;;0.82;0.82;;;14.90;56.50;;;;;;5029268;28;20288;-73
2022/06/07 03:39:08;;;;;;;1.80;0.73;;;14.90;56.60;;;;;;5017004;28;20029;-73
2022/06/07 03:41:38;;;;;;;0.90;0.77;;;14.90;56.60;;;;;;5025934;28;20409;-72
2022/06/07 03:44:12;;;;;;;2.47;0.80;;;14.80;56.50;;;;;;5038073;28;20120;-73
2022/06/07 03:46:44;;;;;;;2.15;1.20;;;14.80;56.60;;;;;;5007285;28;20065;-73
2022/06/07 03:49:10;;;;;;;1.25;1.05;;;14.80;56.60;;;;;;5058237;28;20029;-73
2022/06/07 03:51:37;;;;;;;1.30;0.93;;;14.80;56.60;;;;;;5028344;28;20561;-73
2022/06/07 03:54:04;;;;;;;1.27;0.85;;;14.70;56.50;;;;;;5025347;28;20021;-73
2022/06/07 03:56:32;;;;;;;0.50;0.50;;;14.70;56.60;;;;;;5023836;28;20032;-73
2022/06/07 03:59:01;;;;;;;2.10;0.93;;;14.70;56.70;;;;;;5024292;28;20037;-72
2022/06/07 04:01:28;;;;;;;1.23;0.77;;;14.70;56.70;;;;;;5041904;28;20106;-72
2022/06/07 04:04:02;;;;;;;1.67;1.08;;;14.70;56.80;;;;;;5029093;28;20057;-72
2022/06/07 04:06:33;;;;;;;1.23;0.90;;;14.60;56.70;;;;;;5028771;28;20037;-71
2022/06/07 04:09:07;;;;;;;0.70;0.70;;;14.60;56.80;;;;;;5029150;28;20052;-73
2022/06/07 04:11:37;;;;;;;0.82;0.60;;;14.60;56.90;;;;;;5028329;28;20032;-72
2022/06/07 04:14:03;;;;;;;1.25;0.77;;;14.60;56.80;;;;;;5027971;28;20575;-73
2022/06/07 04:16:31;;;;;;;0.73;0.70;;;14.50;56.70;;;;;;5045181;28;20120;-72
2022/06/07 04:19:01;;;;;;;1.77;1.13;;;14.50;56.70;;;;;;5033332;28;20056;-73
2022/06/07 04:21:28;;;;;;;1.75;0.90;;;14.50;56.80;;;;;;5039660;28;20033;-72
2022/06/07 04:24:04;;;;;;;3.47;0.98;;;14.50;56.80;;;;;;5044918;28;20025;-72
2022/06/07 04:26:33;;;;;;;0.88;0.65;;;14.50;56.80;;;;;;5045422;28;20460;-73
2022/06/07 04:28:59;;;;;;;1.42;0.90;;;14.50;56.90;;;;;;5030567;28;20032;-72
2022/06/07 04:31:27;;;;;;;1.35;0.77;;;14.50;56.90;;;;;;5034262;28;20050;-71
2022/06/07 04:33:57;;;;;;;3.22;0.63;;;14.50;57.00;;;;;;5026771;28;20029;-71
2022/06/07 04:36:26;;;;;;;1.50;0.70;;;14.50;57.00;;;;;;5045033;28;20028;-73
2022/06/07 04:38:56;;;;;;;1.63;0.85;;;14.50;57.10;;;;;;5027806;28;20064;-73
2022/06/07 04:41:25;;;;;;;2.65;1.00;;;14.50;57.10;;;;;;5038317;28;20032;-73
2022/06/07 04:43:57;;;;;;;1.33;0.90;;;14.50;57.10;;;;;;5040930;28;20549;-73
2022/06/07 04:46:26;;;;;;;1.80;0.80;;;14.50;57.20;;;;;;5036956;28;20036;-73
2022/06/07 04:48:55;;;;;;;1.77;0.85;;;14.50;57.20;;;;;;5031660;28;20069;-73
2022/06/07 04:51:28;;;;;;;1.42;0.80;;;14.50;57.30;;;;;;5010724;28;20075;-73
2022/06/07 04:54:14;;;;;;;0.95;0.85;;;14.50;57.30;;;;;;5050517;28;20501;-73
2022/06/07 04:56:44;;;;;;;2.00;1.27;;;14.50;57.20;;;;;;5052010;28;20033;-73
2022/06/07 04:59:12;;;;;;;1.27;0.82;;;14.60;57.50;;;;;;5030671;28;20021;-73
2022/06/07 05:01:44;;;;;;;1.50;1.00;;;14.60;57.50;;;;;;5028089;28;20025;-73
2022/06/07 05:04:18;;;;;;;2.17;1.10;;;14.60;57.50;;;;;;5012074;28;20029;-74
2022/06/07 05:06:46;;;;;;;1.98;0.98;;;14.60;57.50;;;;;;5031225;28;20789;-73
2022/06/07 05:09:24;;;;;;;1.15;1.05;;;14.60;57.40;;;;;;5026100;28;20029;-72
2022/06/07 05:11:56;;;;;;;2.15;1.02;;;14.70;57.60;;;;;;5033535;28;20396;-74
2022/06/07 05:14:24;;;;;;;2.70;1.27;;;14.70;57.70;;;;;;5042381;28;20032;-73
2022/06/07 05:16:51;;;;;;;1.92;1.25;;;14.70;57.70;;;;;;5019219;28;20041;-73
2022/06/07 05:19:22;;;;;;;1.30;1.20;;;14.70;57.70;;;;;;5041204;28;20538;-73
2022/06/07 05:21:57;;;;;;;1.65;1.15;;;14.80;57.90;;;;;;5027895;28;20281;-72
2022/06/07 05:24:23;;;;;;;2.08;1.65;;;14.80;57.90;;;;;;5063795;28;20039;-74
2022/06/07 05:26:53;;;;;;;2.30;1.27;;;14.80;57.80;;;;;;5030558;28;20029;-74
2022/06/07 05:29:29;;;;;;;3.75;1.20;;;14.90;58.10;;;;;;5031570;28;20111;-72
2022/06/07 05:31:56;;;;;;;1.52;1.15;;;14.90;58.00;;;;;;5034793;28;20052;-73
2022/06/07 05:34:22;;;;;;;1.50;1.27;;;14.90;58.00;;;;;;5030960;28;20810;-74
2022/06/07 05:36:52;;;;;;;3.08;1.52;;;15.00;58.20;;;;;;5028614;28;20032;-74
2022/06/07 05:39:25;;;;;;;2.65;1.35;;;14.90;58.00;;;;;;5022592;28;20025;-73
2022/06/07 05:41:55;;;;;;;1.30;1.20;;;15.00;58.20;;;;;;5032723;28;20033;-74
2022/06/07 05:44:24;;;;;;;1.40;1.30;;;15.00;58.10;;;;;;5043344;28;20116;-74
2022/06/07 05:46:53;;;;;;;2.88;1.20;;;15.00;58.10;;;;;;5047095;28;20040;-73
2022/06/07 05:49:31;;;;;;;4.13;2.65;;;15.10;58.30;;;;;;5041464;28;20021;-75
2022/06/07 05:52:07;;;;;;;2.53;1.30;;;15.10;58.20;;;;;;5057686;28;20447;-74
2022/06/07 05:54:35;;;;;;;1.65;1.50;;;15.20;59.00;;;;;;5045380;28;20139;-73
2022/06/07 05:57:04;;;;;;;7.13;1.80;;;15.30;58.60;;;;;;5048039;28;20029;-74
2022/06/07 05:59:31;;;;;;;3.15;1.52;;;15.30;58.50;;;;;;5047049;28;20483;-74
2022/06/07 06:01:57;;;;;;;2.35;1.35;;;15.40;58.60;;;;;;5065788;28;20052;-74
2022/06/07 06:04:28;;;;;;;2.28;1.30;;;15.50;58.80;;;;;;5031674;28;20029;-74
2022/06/07 06:06:57;;;;;;;2.22;1.38;;;15.60;58.80;;;;;;5044310;28;20064;-75
2022/06/07 06:12:11;;;;;;;2.95;1.35;;;15.90;59.00;;;;;;5044494;28;20068;-75
2022/06/07 06:15:04;;;;;;;2.83;1.45;;;16.00;58.90;;;;;;5045821;28;20033;-74
2022/06/07 06:17:31;;;;;;;3.45;1.20;;;16.20;58.90;;;;;;5040978;28;20037;-74
2022/06/07 06:20:09;;;;;;;4.60;1.70;;;16.40;59.00;;;;;;5046733;28;20028;-75
2022/06/07 06:22:39;;;;;;;1.73;1.05;;;16.60;59.40;;;;;;5042563;28;20024;-74
2022/06/07 06:25:08;;;;;;;1.33;1.00;;;16.80;59.40;;;;;;5059166;28;20071;-72
2022/06/07 06:27:37;;;;;;;1.48;1.20;;;17.10;59.60;;;;;;5039444;28;20107;-73
2022/06/07 06:30:08;;;;;;;1.42;1.20;;;17.40;59.60;;;;;;5042277;28;20032;-73
2022/06/07 06:32:39;;;;;;;1.48;1.13;;;17.90;60.00;;;;;;5043063;28;20039;-73
2022/06/07 06:35:06;;;;;;;1.75;1.40;;;18.60;59.90;;;;;;5062823;28;20029;-75
2022/06/07 06:37:34;;;;;;;2.97;1.00;;;19.30;59.40;;;;;;5025629;28;20170;-75
2022/06/07 06:40:07;;;;;;;1.08;0.98;;;20.10;58.90;;;;;;5029330;28;20020;-76
2022/06/07 06:42:39;;;;;;;1.23;1.05;;;20.80;58.40;;;;;;5047194;28;20036;-75
2022/06/07 06:45:29;;;;;;;2.28;1.52;;;21.50;57.90;;;;;;5057185;28;20226;-75
2022/06/07 06:48:01;;;;;;;2.97;1.00;;;22.20;57.60;;;;;;5029403;28;20075;-75
2022/06/07 06:50:30;;;;;;;1.85;1.23;;;22.80;57.40;;;;;;5046355;28;20032;-74
2022/06/07 06:52:57;;;;;;;1.63;0.85;;;23.50;57.50;;;;;;5065620;28;20424;-74
2022/06/07 06:55:24;;;;;;;1.35;0.95;;;24.00;57.20;;;;;;5029720;28;20116;-73
2022/06/07 06:57:51;;;;;;;2.53;1.20;;;24.60;57.10;;;;;;5025581;28;20033;-73
2022/06/07 07:00:18;;;;;;;2.00;1.13;;;25.10;57.10;;;;;;5038492;28;20024;-73
2022/06/07 07:02:45;;;;;;;1.40;0.80;;;25.60;56.20;;;;;;5046674;28;20028;-75
2022/06/07 07:05:15;;;;;;;2.85;1.00;;;26.00;55.50;;;;;;5041995;28;20170;-74
2022/06/07 07:07:46;;;;;;;1.10;0.90;;;26.50;54.80;;;;;;5043222;28;20527;-75
2022/06/07 07:10:19;;;;;;;1.42;0.88;;;27.10;54.20;;;;;;5042411;28;20388;-74
2022/06/07 07:12:47;;;;;;;3.03;1.23;;;27.60;53.50;;;;;;5045335;28;20395;-75
2022/06/07 07:15:19;;;;;;;2.15;0.90;;;27.90;52.80;;;;;;5047571;28;20388;-75
2022/06/07 07:17:55;;;;;;;2.03;0.85;;;28.00;52.50;;;;;;5044635;28;20637;-74
2022/06/07 07:20:25;;;;;;;1.70;0.77;;;28.00;52.40;;;;;;5040332;28;20037;-75
2022/06/07 07:22:51;;;;;;;1.48;0.80;;;28.00;52.40;;;;;;5047395;28;20028;-75
2022/06/07 07:25:19;;;;;;;1.85;0.98;;;27.80;52.50;;;;;;5047949;28;20033;-74
2022/06/07 07:27:46;;;;;;;3.47;0.90;;;27.70;52.70;;;;;;5048274;28;20526;-76
2022/06/07 07:30:14;;;;;;;2.05;1.05;;;27.50;52.80;;;;;;5031547;28;20260;-77
2022/06/07 07:32:43;;;;;;;1.63;0.70;;;27.30;53.00;;;;;;5064770;28;20040;-75
2022/06/07 07:35:12;;;;;;;1.65;0.93;;;27.20;53.10;;;;;;5049455;28;20610;-73
2022/06/07 07:37:46;;;;;;;1.45;0.70;;;27.10;53.20;;;;;;5045487;28;20441;-73
2022/06/07 07:40:15;;;;;;;0.95;0.80;;;27.00;53.20;;;;;;5056238;28;20037;-74
2022/06/07 07:42:42;;;;;;;2.78;1.30;;;27.00;53.10;;;;;;5046323;28;20028;-73
2022/06/07 07:45:12;;;;;;;1.73;0.73;;;27.00;53.10;;;;;;5046471;28;20068;-73
2022/06/07 07:47:41;;;;;;;0.98;0.68;;;27.00;53.00;;;;;;5048222;28;20059;-74
2022/06/07 07:50:11;;;;;;;1.55;1.17;;;27.00;53.00;;;;;;5047815;28;20025;-74
2022/06/07 07:52:39;;;;;;;1.65;0.90;;;26.90;52.90;;;;;;5049191;28;20050;-75
2022/06/07 07:55:09;;;;;;;1.55;0.75;;;26.90;52.90;;;;;;5047824;28;20403;-73
2022/06/07 07:57:37;;;;;;;2.13;0.80;;;26.90;52.90;;;;;;5048514;28;20430;-76
2022/06/07 08:00:06;;;;;;;1.40;1.15;;;26.80;52.90;;;;;;5040888;28;20107;-74
2022/06/07 08:02:39;;;;;;;0.80;0.73;;;26.80;52.90;;;;;;5061099;28;20075;-74
2022/06/07 08:05:13;;;;;;;1.17;0.82;;;26.80;52.90;;;;;;5047519;28;20036;-73
2022/06/07 08:07:39;;;;;;;1.83;0.80;;;26.80;52.90;;;;;;5046437;28;20099;-74
2022/06/07 08:10:06;;;;;;;2.15;1.10;;;26.90;52.90;;;;;;5066882;28;20177;-73
2022/06/07 08:12:32;;;;;;;3.72;1.23;;;26.90;52.80;;;;;;5068918;28;20329;-74
2022/06/07 08:15:01;;;;;;;2.03;1.00;;;27.00;52.70;;;;;;5066273;28;20406;-74
2022/06/07 08:17:28;;;;;;;1.65;1.23;;;27.10;52.50;;;;;;5072819;28;20032;-74
2022/06/07 08:19:54;;;;;;;1.75;1.15;;;27.30;52.40;;;;;;5069872;28;20547;-75
2022/06/07 08:22:21;;;;;;;2.63;0.90;;;27.40;52.10;;;;;;5049487;28;20135;-75
2022/06/07 08:24:48;;;;;;;3.00;1.40;;;27.60;51.90;;;;;;5035829;28;20101;-74
2022/06/07 08:27:16;;;;;;;2.00;1.33;;;27.70;51.70;;;;;;5073948;28;20024;-75
2022/06/07 08:29:42;;;;;;;3.20;1.25;;;27.80;51.50;;;;;;5061374;28;20104;-76
2022/06/07 08:32:08;;;;;;;0.90;0.90;;;27.90;51.40;;;;;;5080893;28;20144;-75
2022/06/07 08:37:38;;;;;;;2.53;1.33;;;28.10;51.10;;;;;;5082440;28;20048;-74
2022/06/07 08:40:12;;;;;;;3.67;1.27;;;28.30;50.90;;;;;;5047336;28;20092;-77
2022/06/07 08:42:58;;;;;;;2.50;0.98;;;28.40;50.60;;;;;;5059824;28;20025;-76
2022/06/07 08:45:35;;;;;;;1.05;0.82;;;28.50;50.20;;;;;;5047987;28;20044;-75
2022/06/07 08:48:12;;;;;;;2.42;1.35;;;28.60;50.30;;;;;;5053668;28;20129;-80
2022/06/07 08:51:19;;;;;;;2.42;1.85;;;28.70;50.20;;;;;;5050677;28;20192;-79
2022/06/07 08:53:51;;;;;;;2.95;1.85;;;28.90;49.40;;;;;;5033452;28;20087;-75
2022/06/07 08:56:21;;;;;;;3.08;1.40;;;29.00;49.40;;;;;;5068985;28;20041;-76
2022/06/07 08:58:49;;;;;;;1.95;1.42;;;29.10;49.20;;;;;;5065750;28;20056;-76
2022/06/07 09:01:35;;;;;;;2.58;1.63;;;29.20;48.90;;;;;;5068852;28;20032;-76
2022/06/07 09:04:18;;;;;;;3.03;1.52;;;29.30;48.50;;;;;;5060228;28;20033;-77
2022/06/07 09:06:51;;;;;;;3.42;1.25;;;29.50;48.30;;;;;;5049967;28;20040;-76
2022/06/07 09:09:20;;;;;;;2.75;1.00;;;29.60;48.10;;;;;;5066516;28;20028;-75
2022/06/07 09:14:42;;;;;;;3.88;1.23;;;30.00;47.80;;;;;;5064693;28;20438;-78
2022/06/07 09:17:12;;;;;;;2.38;1.25;;;30.30;47.60;;;;;;5069018;28;20036;-76
2022/06/07 09:19:39;;;;;;;2.35;2.05;;;30.50;47.30;;;;;;5054409;28;20033;-75
2022/06/07 09:22:15;;;;;;;3.10;1.80;;;30.60;46.90;;;;;;5061932;28;20111;-76
2022/06/07 09:24:51;;;;;;;2.08;1.70;;;30.80;47.20;;;;;;5051328;28;20025;-75
2022/06/07 09:27:23;;;;;;;1.70;1.08;;;31.00;46.30;;;;;;5064520;28;20086;-76
2022/06/07 09:29:56;;;;;;;2.10;1.20;;;31.10;46.10;;;;;;5049492;28;20056;-75
2022/06/07 09:32:23;;;;;;;;;;;31.10;46.10;;;;;;5068395;28;20044;-76
2022/06/07 09:35:20;;;;;;;4.28;2.03;;;31.20;46.20;;;;;;5067417;28;19912;-76
2022/06/07 09:38:00;;;;;;;2.70;1.35;;;31.40;45.90;;;;;;5062381;28;20083;-74
2022/06/07 09:40:32;;;;;;;1.75;1.00;;;31.60;45.80;;;;;;5061668;28;20305;-75
2022/06/07 09:43:01;;;;;;;2.45;1.38;;;31.90;45.50;;;;;;5047728;28;20083;-76
2022/06/07 09:45:36;;;;;;;1.20;1.08;;;32.20;45.40;;;;;;5066071;28;20040;-74
2022/06/07 09:48:44;;;;;;;2.53;2.30;;;32.30;45.00;;;;;;5048805;28;20215;-74
2022/06/07 09:51:18;;;;;;;3.40;1.70;;;32.30;44.70;;;;;;4989099;28;20966;-76
2022/06/07 09:54:13;;;;;;;3.25;2.33;;;32.40;44.90;;;;;;5031469;28;20049;-75
2022/06/07 09:56:46;;;;;;;3.75;1.55;;;32.40;44.80;;;;;;5046207;28;20082;-73
2022/06/07 09:59:39;;;;;;;3.53;2.60;;;32.30;44.90;;;;;;5044692;28;20139;-75
2022/06/07 10:02:22;;;;;;;5.13;2.22;;;32.30;44.80;;;;;;5060743;28;20050;-75
2022/06/07 10:05:26;;;;;;;3.23;2.33;;;32.20;45.00;;;;;;5066377;28;20802;-74
2022/06/07 10:08:22;;;;;;;4.40;2.63;;;32.00;45.10;;;;;;5064654;28;20029;-74
2022/06/07 10:11:02;;;;;;;3.35;2.55;;;31.70;45.40;;;;;;5056660;28;20039;-74
2022/06/07 10:13:46;;;;;;;4.13;3.08;;;31.50;45.70;;;;;;5047801;28;20041;-75
2022/06/07 10:16:56;;;;;;;3.53;3.13;;;31.30;45.90;;;;;;5046920;28;20595;-75
2022/06/07 10:20:06;;;;;;;6.15;2.63;;;31.20;46.20;;;;;;5043346;28;20516;-75
2022/06/07 10:23:05;;;;;;;3.72;3.28;;;30.90;46.40;;;;;;5040212;28;20302;-76
2022/06/07 10:26:05;;;;;;;5.18;3.28;;;30.70;46.70;;;;;;5017581;28;20031;-76
2022/06/07 10:28:35;;;;;;;3.67;2.65;;;30.50;46.90;;;;;;5048547;28;20033;-75
2022/06/07 10:31:13;;;;;;;2.80;2.60;;;30.30;47.30;;;;;;5041730;28;20075;-77
2022/06/07 10:33:50;;;;;;;3.50;2.47;;;30.10;47.40;;;;;;5057196;28;20040;-75
2022/06/07 10:36:25;;;;;;;5.53;3.22;;;30.00;47.70;;;;;;5065042;28;20472;-75
2022/06/07 10:39:21;;;;;;;2.50;2.30;;;29.80;47.90;;;;;;5057062;28;20111;-76
2022/06/07 10:42:09;;;;;;;3.05;2.75;;;29.60;48.10;;;;;;5061464;28;20039;-74
2022/06/07 10:44:41;;;;;;;5.35;3.08;;;29.40;48.40;;;;;;5045083;28;20040;-76
2022/06/07 10:47:23;;;;;;;3.75;3.15;;;29.20;48.60;;;;;;5064360;28;20041;-86
2022/06/07 10:49:55;;;;;;;3.75;3.35;;;29.10;48.90;;;;;;5062138;28;20024;-76
2022/06/07 10:53:03;;;;;;;6.20;4.37;;;28.90;48.90;;;;;;5063845;28;20115;-75
2022/06/07 10:55:43;;;;;;;4.60;3.22;;;28.80;49.00;;;;;;5033354;28;20033;-75
2022/06/07 10:58:21;;;;;;;5.20;4.35;;;28.60;49.20;;;;;;5065952;28;20402;-76
2022/06/07 11:01:06;;;;;;;4.07;3.65;;;28.50;49.40;;;;;;5062954;28;20036;-75
2022/06/07 11:03:56;;;;;;;4.53;3.85;;;28.30;49.50;;;;;;5046772;28;20032;-74
2022/06/07 11:09:36;;;;;;;3.55;3.05;;;28.20;49.90;;;;;;5054660;28;20077;-74
2022/06/07 11:12:16;;;;;;;3.72;3.42;;;28.10;50.00;;;;;;5047233;28;20108;-75
2022/06/07 11:15:20;;;;;;;6.53;4.65;;;28.20;50.00;;;;;;5030865;28;20029;-75
2022/06/07 11:18:02;;;;;;;5.63;4.18;;;28.50;49.80;;;;;;5063728;28;20025;-76
2022/06/07 11:20:31;;;;;;;4.18;3.60;;;28.70;49.60;;;;;;5046703;28;20116;-75
2022/06/07 11:23:21;;;;;;;6.95;4.53;;;28.80;49.50;;;;;;5048573;28;20357;-76
2022/06/07 11:26:03;;;;;;;3.78;3.47;;;28.80;49.40;;;;;;5021518;28;20708;-74
2022/06/07 11:28:37;;;;;;;5.20;4.10;;;28.90;49.50;;;;;;5063597;28;20025;-75
2022/06/07 11:31:41;;;;;;;4.43;3.80;;;28.90;49.50;;;;;;5046184;28;20384;-75
2022/06/07 11:34:20;;;;;;;5.07;4.60;;;28.90;49.50;;;;;;5051773;28;20082;-75
2022/06/07 11:36:46;;;;;;;4.80;4.20;;;29.00;49.70;;;;;;5048314;28;20036;-75
2022/06/07 11:39:23;;;;;;;4.97;4.47;;;29.00;49.60;;;;;;5060114;28;20033;-76
2022/06/07 11:41:54;;;;;;;4.13;3.75;;;29.10;49.60;;;;;;5045422;28;20033;-77
2022/06/07 11:44:34;;;;;;;4.50;3.90;;;29.20;49.50;;;;;;5063799;28;20079;-76
2022/06/07 11:47:06;;;;;;;4.32;3.80;;;29.40;49.40;;;;;;5041670;28;20052;-76
2022/06/07 11:49:40;;;;;;;3.83;3.50;;;29.60;49.20;;;;;;5054844;28;20614;-78
2022/06/07 11:52:12;;;;;;;3.95;3.65;;;29.70;49.00;;;;;;5060093;28;20395;-75
2022/06/07 11:54:44;;;;;;;3.47;3.17;;;29.80;49.00;;;;;;5061466;28;20029;-75
2022/06/07 11:57:56;;;;;;;4.25;3.85;;;30.00;48.90;;;;;;5064349;28;20028;-74
2022/06/07 12:00:31;;;;;;;4.03;3.63;;;30.00;48.70;;;;;;5045556;28;20079;-76
2022/06/07 12:02:56;;;;;;;3.88;3.40;;;30.00;48.80;;;;;;5061026;28;20055;-76
2022/06/07 12:05:52;;;;;;;3.65;3.35;;;29.80;49.00;;;;;;5045215;28;20128;-75
2022/06/07 12:08:47;;;;;;;4.75;3.58;;;29.60;49.10;;;;;;5052161;28;20029;-75
2022/06/07 12:11:21;;;;;;;5.53;3.22;;;29.40;49.40;;;;;;5061288;28;20131;-74
2022/06/07 12:13:56;;;;;;;3.92;3.38;;;29.20;49.70;;;;;;5057647;28;20404;-76
2022/06/07 12:16:44;;;;;;;3.35;2.97;;;29.20;49.80;;;;;;5056545;28;20415;-75
2022/06/07 12:19:33;;;;;;;4.10;2.95;;;29.20;49.80;;;;;;5057511;28;20029;-75
2022/06/07 12:22:04;;;;;;;3.42;3.13;;;29.20;49.70;;;;;;5043519;28;20028;-75
2022/06/07 12:24:58;;;;;;;3.27;2.90;;;29.20;49.80;;;;;;5045909;28;20051;-76
2022/06/07 12:27:30;;;;;;;3.72;3.42;;;29.20;49.80;;;;;;5059441;28;20273;-74
2022/06/07 12:30:04;;;;;;;3.60;3.10;;;29.20;49.80;;;;;;5060405;28;20493;-75
2022/06/07 12:32:35;;;;;;;3.08;2.65;;;29.20;49.80;;;;;;5055137;28;20048;-74
2022/06/07 12:35:06;;;;;;;3.28;2.97;;;29.10;49.80;;;;;;5061775;28;20032;-76
2022/06/07 12:37:34;;;;;;;3.40;3.00;;;29.10;49.90;;;;;;5042150;28;20059;-75
2022/06/07 12:40:00;;;;;;;4.53;3.28;;;29.00;50.10;;;;;;5064084;28;20355;-75
2022/06/07 12:42:32;;;;;;;2.60;2.40;;;28.80;50.20;;;;;;5059536;28;20028;-76
2022/06/07 12:45:01;;;;;;;3.33;2.75;;;28.70;50.40;;;;;;5064481;28;20063;-73
2022/06/07 12:47:36;;;;;;;4.20;2.72;;;28.50;50.60;;;;;;5058938;28;20210;-73
2022/06/07 12:50:17;;;;;;;2.42;2.22;;;28.40;50.90;;;;;;5056783;28;20032;-74
2022/06/07 12:52:53;;;;;;;2.97;2.67;;;28.40;51.10;;;;;;5063634;28;20072;-74
2022/06/07 12:55:31;;;;;;;3.05;2.70;;;28.50;51.00;;;;;;5056434;28;20171;-74
2022/06/07 12:58:07;;;;;;;2.85;2.65;;;28.70;50.90;;;;;;5030088;28;20036;-75
2022/06/07 13:00:45;;;;;;;3.10;2.80;;;29.00;50.60;;;;;;5042008;28;20681;-74
2022/06/07 13:03:20;;;;;;;3.00;2.70;;;29.20;50.40;;;;;;5061436;28;20863;-73
2022/06/07 13:05:46;;;;;;;2.70;2.50;;;29.20;50.30;;;;;;5063231;28;20029;-74
2022/06/07 13:08:16;;;;;;;4.57;2.75;;;29.30;50.30;;;;;;5051066;28;20033;-75
2022/06/07 13:10:44;;;;;;;3.05;2.75;;;29.20;50.40;;;;;;5059606;28;20056;-74
2022/06/07 13:13:27;;;;;;;4.28;2.50;;;29.10;50.60;;;;;;5042900;28;20456;-74
2022/06/07 13:15:58;;;;;;;4.90;2.83;;;28.90;50.80;;;;;;5060527;28;20538;-74
2022/06/07 13:18:33;;;;;;;2.88;2.63;;;28.70;51.10;;;;;;5047437;28;20545;-73
2022/06/07 13:21:22;;;;;;;2.90;2.70;;;28.50;51.40;;;;;;5043691;28;20051;-74
2022/06/07 13:23:55;;;;;;;2.70;2.50;;;28.20;51.70;;;;;;5029137;28;20341;-73
2022/06/07 13:26:29;;;;;;;3.30;2.67;;;28.00;52.00;;;;;;5067669;28;20075;-74
2022/06/07 13:29:07;;;;;;;3.55;2.67;;;27.80;52.30;;;;;;5048017;28;20051;-74
2022/06/07 13:31:49;;;;;;;3.13;2.75;;;27.70;52.60;;;;;;5049122;28;20063;-73
2022/06/07 13:34:32;;;;;;;2.53;2.15;;;27.60;52.70;;;;;;5047799;28;20036;-74
2022/06/07 13:37:10;;;;;;;2.67;2.13;;;27.70;52.90;;;;;;5048373;28;20021;-74
2022/06/07 13:40:01;;;;;;;2.13;1.92;;;27.90;52.80;;;;;;5057457;28;20483;-74